aviador You're here:

USSS Decoded Metar

SVERDLOVSK in RUSSIA
Report Time2017-12-11 12:30:00
UTC Time2017-12-11 13:11:14
Flight Rules ifr IFR
Wind310° at 6 kt
W.Decomp.*RWY 26: 4.9 kt HW 3.5 kt RCW
W.Rank310° ranks 15
Current wind is below 310° avg. (7.9)
Visibility4100 m
Phenomena:Light Snow
Clouds:Few 008 Hf
Broken 014 Hf
Expected CloudBase > 800 ft AGL from Temp-Dew spread
Ceiling1,400 ft
Temp-13°C (ISA -26)
Dew Point-15°C (85% RH)
AAT-18.5°C
QNH1029 hPa
Density Alt-3,084 ft
Elevation764 ft
Report Wrong Elevation
Raw Report
USSS 111230Z 31003MPS 9000 4100W -SN FEW008 BKN014 M13/M15 Q1029
R26R/450245 NOSIG RMK QFE751/1001=

Extra information for USSS:More info

Metar Taf Metar & Taf Last 4 Metars F.Rules Stats Wind Profile Meteogram Temp Stats Airport Information Weather charts Add Link Nearby VenuesMetar ALERT Operation Metar Decoded Social comments